Time;durP1;ratioP1;P1;durP2;ratioP2;P2;SDS_P1;SDS_P2;PMS_P1;PMS_P2;Temp;Humidity;BMP_temperature;BMP_pressure;BME280_temperature;BME280_humidity;BME280_pressure;Samples;Min_cycle;Max_cycle;Signal;HPM_P1;HPM_P2
2022/05/13 00:00:26;;;;;;;;;1.50;0.00;;;;;20.14;38.50;101617.03;2087068;28;47932;-53
2022/05/13 00:01:26;;;;;;;;;0.67;0.67;;;;;20.12;38.26;101616.25;2086704;28;47741;-50
2022/05/13 00:02:27;;;;;;;;;1.00;1.00;;;;;20.10;38.21;101615.44;2086049;28;46512;-48
2022/05/13 00:03:28;;;;;;;;;1.00;0.00;;;;;20.08;38.03;101609.28;2087525;28;47860;-48
2022/05/13 00:04:28;;;;;;;;;0.00;0.00;;;;;20.07;38.10;101615.56;2087285;28;46555;-52
2022/05/13 00:05:28;;;;;;;;;1.00;1.00;;;;;20.05;37.89;101608.50;2087217;28;47789;-52
2022/05/13 00:06:29;;;;;;;;;1.00;1.00;;;;;20.00;38.01;101611.44;2081950;28;47468;-51
2022/05/13 00:07:29;;;;;;;;;0.00;0.00;;;;;19.99;38.37;101617.78;2087975;28;47394;-50
2022/05/13 00:08:31;;;;;;;;;1.00;1.00;;;;;19.98;38.19;101614.22;2088728;28;48019;-53
2022/05/13 00:10:51;;;;;;;;;1.00;0.75;;;;;19.95;38.11;101610.78;2087700;28;47080;-52
2022/05/13 00:11:51;;;;;;;;;2.00;0.00;;;;;19.93;37.87;101613.53;2088649;28;47520;-51
2022/05/13 00:12:53;;;;;;;;;2.33;1.00;;;;;19.92;37.93;101617.16;2088596;28;47522;-49
2022/05/13 00:13:53;;;;;;;;;0.25;0.25;;;;;19.92;38.15;101619.00;2088793;28;47569;-53
2022/05/13 00:14:54;;;;;;;;;0.00;0.00;;;;;19.89;38.04;101619.13;2088790;28;47685;-53
2022/05/13 00:15:55;;;;;;;;;2.33;2.00;;;;;19.88;38.25;101614.69;2088749;28;47524;-53
2022/05/13 00:16:55;;;;;;;;;0.50;0.50;;;;;19.88;37.98;101617.38;2088439;28;47654;-52
2022/05/13 00:17:56;;;;;;;;;1.00;1.00;;;;;19.87;37.99;101621.91;2088821;28;47601;-52
2022/05/13 00:18:57;;;;;;;;;0.00;0.00;;;;;19.86;38.49;101619.28;2088724;28;47560;-50
2022/05/13 00:19:58;;;;;;;;;1.00;1.00;;;;;19.85;38.21;101620.22;2088850;28;47194;-51
2022/05/13 00:20:58;;;;;;;;;0.00;0.00;;;;;19.85;37.86;101622.94;2080253;28;47733;-53
2022/05/13 00:21:59;;;;;;;;;0.00;0.00;;;;;19.81;37.71;101615.91;2088083;28;47650;-51
2022/05/13 00:23:00;;;;;;;;;0.00;0.00;;;;;19.79;37.88;101621.38;2088557;28;47972;-53
2022/05/13 00:24:00;;;;;;;;;2.00;2.00;;;;;19.78;37.88;101622.31;2087326;28;47326;-53
2022/05/13 00:25:01;;;;;;;;;0.00;0.00;;;;;19.78;38.06;101621.44;2087877;28;47934;-51
2022/05/13 00:26:02;;;;;;;;;0.33;0.00;;;;;19.78;38.30;101624.13;2088439;28;45882;-53
2022/05/13 00:27:03;;;;;;;;;1.00;1.00;;;;;19.79;38.11;101623.19;2088504;28;47209;-51
2022/05/13 00:28:06;;;;;;;;;0.00;0.00;;;;;19.78;38.09;101621.44;2088626;28;47680;-51
2022/05/13 00:29:06;;;;;;;;;2.00;0.00;;;;;19.76;38.02;101615.25;2088758;28;48258;-50
2022/05/13 00:30:08;;;;;;;;;3.00;1.67;;;;;19.77;38.15;101619.69;2088610;28;48281;-51
2022/05/13 00:31:09;;;;;;;;;1.50;1.50;;;;;19.75;38.24;101614.38;2088361;28;47422;-51
2022/05/13 00:32:09;;;;;;;;;1.33;0.67;;;;;19.74;37.65;101626.09;2088561;28;47916;-51
2022/05/13 00:33:10;;;;;;;;;3.33;1.00;;;;;19.72;37.79;101624.44;2088413;28;47863;-51
2022/05/13 00:34:10;;;;;;;;;0.00;0.00;;;;;19.70;38.18;101613.72;2088862;28;47164;-53
2022/05/13 00:35:11;;;;;;;;;1.33;0.00;;;;;19.69;37.91;101618.25;2088678;28;47454;-51
2022/05/13 00:36:12;;;;;;;;;0.00;0.00;;;;;19.69;38.23;101611.94;2084665;28;47571;-51
2022/05/13 00:37:12;;;;;;;;;0.00;0.00;;;;;19.68;37.97;101613.78;2088597;28;47549;-49
2022/05/13 00:38:13;;;;;;;;;0.00;0.00;;;;;19.67;38.11;101617.41;2087858;28;47552;-53
2022/05/13 00:39:14;;;;;;;;;1.33;1.00;;;;;19.66;37.86;101612.97;2088062;28;47324;-51
2022/05/13 00:40:16;;;;;;;;;0.00;0.00;;;;;19.64;37.87;101611.31;2088575;28;47449;-52
2022/05/13 00:41:17;;;;;;;;;1.00;1.00;;;;;19.63;38.01;101615.81;2088334;28;47623;-51
2022/05/13 00:42:19;;;;;;;;;1.00;1.00;;;;;19.61;38.10;101612.31;2088517;28;47675;-50
2022/05/13 00:43:45;;;;;;;;;1.00;1.00;;;;;19.59;38.73;101608.81;2087488;28;47278;-50
2022/05/13 00:44:46;;;;;;;;;0.50;0.50;;;;;19.60;38.13;101607.00;2086829;28;48229;-50
2022/05/13 00:45:46;;;;;;;;;0.00;0.00;;;;;19.59;38.07;101616.91;2088656;28;47585;-52
2022/05/13 00:46:48;;;;;;;;;1.00;1.00;;;;;19.59;38.34;101613.34;2088221;28;47666;-52
2022/05/13 00:47:48;;;;;;;;;0.00;0.00;;;;;19.59;38.11;101610.66;2086628;28;47394;-54
2022/05/13 00:48:50;;;;;;;;;2.00;1.00;;;;;19.60;38.66;101604.31;2086234;28;47890;-51
2022/05/13 00:49:53;;;;;;;;;0.00;0.00;;;;;19.60;38.11;101604.31;2088546;28;47761;-54
2022/05/13 00:50:53;;;;;;;;;1.50;0.00;;;;;19.59;37.96;101607.94;2088179;28;47731;-53
2022/05/13 00:51:54;;;;;;;;;0.67;0.67;;;;;19.57;38.18;101605.34;2090357;28;47383;-56
2022/05/13 00:52:55;;;;;;;;;0.00;0.00;;;;;19.57;38.45;101605.34;2089398;28;47558;-53
2022/05/13 00:53:56;;;;;;;;;0.00;0.00;;;;;19.58;38.11;101606.22;2089626;28;47241;-51
2022/05/13 00:55:03;;;;;;;;;3.00;1.75;;;;;19.58;38.33;101606.22;2088305;28;47602;-53
2022/05/13 00:56:05;;;;;;;;;0.00;0.00;;;;;19.58;38.10;101612.47;2089541;28;47903;-49
2022/05/13 00:57:06;;;;;;;;;0.00;0.00;;;;;19.58;38.08;101607.09;2086658;28;47684;-52
2022/05/13 00:58:10;;;;;;;;;0.67;0.67;;;;;19.57;37.85;101605.34;2087736;28;47995;-51
2022/05/13 00:59:15;;;;;;;;;1.00;1.00;;;;;19.55;38.24;101604.50;2089657;28;47532;-52
2022/05/13 01:00:15;;;;;;;;;0.25;0.25;;;;;19.54;38.32;101610.78;2083059;28;47347;-52
2022/05/13 01:01:16;;;;;;;;;0.00;0.00;;;;;19.53;38.48;101605.50;2087871;28;47529;-53
2022/05/13 01:02:17;;;;;;;;;0.00;0.00;;;;;19.53;38.56;101609.06;2089594;28;47579;-48
2022/05/13 01:03:18;;;;;;;;;0.50;0.00;;;;;19.53;38.30;101610.88;2088438;28;47551;-53
2022/05/13 01:04:20;;;;;;;;;2.33;1.00;;;;;19.52;38.20;101609.13;2089289;28;48180;-49
2022/05/13 01:05:21;;;;;;;;;0.50;0.50;;;;;19.52;38.75;101609.13;2089565;28;47775;-48
2022/05/13 01:06:23;;;;;;;;;0.75;0.75;;;;;19.52;38.86;101618.06;2086818;28;47677;-51
2022/05/13 01:07:24;;;;;;;;;0.75;0.75;;;;;19.53;38.66;101613.56;2088668;28;47855;-50
2022/05/13 01:08:25;;;;;;;;;1.00;1.00;;;;;19.54;38.22;101615.31;2089435;28;48112;-49
2022/05/13 01:09:31;;;;;;;;;0.00;0.00;;;;;19.53;38.70;101613.56;2088272;28;47652;-49
2022/05/13 01:10:35;;;;;;;;;1.00;1.00;;;;;19.53;38.56;101614.44;2089670;28;47322;-54
2022/05/13 01:11:38;;;;;;;;;0.00;0.00;;;;;19.53;38.44;101609.06;2089637;28;47854;-51
2022/05/13 01:12:44;;;;;;;;;1.00;0.25;;;;;19.54;38.22;101608.09;2087585;28;47591;-51
2022/05/13 01:13:48;;;;;;;;;1.00;1.00;;;;;19.53;38.40;101606.34;2088747;28;47991;-51
2022/05/13 01:15:01;;;;;;;;;0.50;0.00;;;;;19.51;38.57;101610.94;2086721;28;47637;-49
2022/05/13 01:16:01;;;;;;;;;0.50;0.25;;;;;19.49;38.65;101606.56;2087644;28;47822;-51
2022/05/13 01:18:45;;;;;;;;;1.25;0.25;;;;;19.46;38.41;101606.72;2087432;28;47397;-49
2022/05/13 01:19:45;;;;;;;;;0.33;0.33;;;;;19.46;38.56;101617.50;2090830;28;47267;-50
2022/05/13 01:20:48;;;;;;;;;1.00;0.00;;;;;19.45;38.52;101605.84;2090056;28;47998;-49
2022/05/13 01:21:50;;;;;;;;;0.00;0.00;;;;;19.43;38.48;101613.09;2093010;28;48229;-50
2022/05/13 01:22:54;;;;;;;;;0.00;0.00;;;;;19.41;38.29;101614.97;2090163;28;48103;-50
2022/05/13 01:23:55;;;;;;;;;1.00;1.00;;;;;19.38;38.40;101616.00;2088499;28;47530;-50
2022/05/13 01:24:55;;;;;;;;;0.50;0.50;;;;;19.36;38.57;101614.31;2089439;28;48031;-53
2022/05/13 01:26:01;;;;;;;;;0.33;0.33;;;;;19.34;38.61;101618.91;2086659;28;48233;-53
2022/05/13 01:27:02;;;;;;;;;0.25;0.25;;;;;19.32;38.54;101612.72;2089648;28;47627;-50
2022/05/13 01:28:11;;;;;;;;;0.67;0.67;;;;;19.29;38.57;101619.09;2089589;28;47710;-53
2022/05/13 01:29:12;;;;;;;;;1.00;0.75;;;;;19.27;38.31;101612.03;2088278;28;48330;-52
2022/05/13 01:30:17;;;;;;;;;0.67;0.00;;;;;19.25;38.75;101616.59;2089381;28;48005;-52
2022/05/13 01:31:39;;;;;;;;;1.50;1.50;;;;;19.23;38.49;101608.59;2089297;28;47690;-50
2022/05/13 01:32:40;;;;;;;;;0.00;0.00;;;;;19.22;38.83;101617.63;2079518;28;47405;-49
2022/05/13 01:33:41;;;;;;;;;0.00;0.00;;;;;19.22;38.54;101616.75;2088552;28;48153;-49
2022/05/13 01:34:42;;;;;;;;;0.00;0.00;;;;;19.20;38.51;101616.81;2089317;28;47626;-49
2022/05/13 01:35:46;;;;;;;;;0.00;0.00;;;;;19.18;38.72;101612.41;2088078;28;47511;-49
2022/05/13 01:36:46;;;;;;;;;0.00;0.00;;;;;19.16;38.61;101619.69;2089151;28;47667;-51
2022/05/13 01:37:47;;;;;;;;;0.00;0.00;;;;;19.11;38.55;101623.47;2089386;28;47779;-49
2022/05/13 01:38:48;;;;;;;;;0.50;0.00;;;;;19.10;38.89;101620.84;2088109;28;48096;-51
2022/05/13 01:39:49;;;;;;;;;0.25;0.25;;;;;19.07;38.97;101627.22;2088819;28;47908;-52
2022/05/13 01:40:50;;;;;;;;;1.00;1.00;;;;;19.07;38.98;101626.34;2081270;28;47938;-50
2022/05/13 01:41:50;;;;;;;;;0.00;0.00;;;;;19.07;38.85;101618.28;2088780;28;48072;-54
2022/05/13 01:42:50;;;;;;;;;0.00;0.00;;;;;19.08;39.20;101625.41;2097067;28;47422;-51
2022/05/13 01:43:52;;;;;;;;;0.00;0.00;;;;;19.07;38.96;101627.22;2090884;28;47269;-49
2022/05/13 01:44:53;;;;;;;;;0.50;0.50;;;;;19.07;39.23;101626.34;2088343;28;47369;-50
2022/05/13 01:45:54;;;;;;;;;0.33;0.33;;;;;19.06;39.23;101629.97;2089008;28;47656;-51
2022/05/13 01:46:54;;;;;;;;;0.50;0.00;;;;;19.04;39.14;101624.63;2086659;28;48164;-53
2022/05/13 01:47:55;;;;;;;;;0.00;0.00;;;;;19.03;39.32;101624.72;2087088;28;47710;-52
2022/05/13 01:48:56;;;;;;;;;0.00;0.00;;;;;19.03;38.95;101619.34;2081178;28;47749;-53
2022/05/13 01:49:56;;;;;;;;;0.00;0.00;;;;;19.01;39.01;101618.53;2087180;28;47338;-51
2022/05/13 01:50:57;;;;;;;;;0.00;0.00;;;;;18.98;39.34;101622.22;2087730;28;47555;-49
2022/05/13 01:51:58;;;;;;;;;0.00;0.00;;;;;18.97;39.27;101625.84;2087945;28;47226;-51
2022/05/13 01:52:58;;;;;;;;;1.33;1.33;;;;;18.95;39.41;101625.06;2088115;28;47474;-49
2022/05/13 01:53:59;;;;;;;;;0.67;0.00;;;;;18.92;39.20;101617.09;2088246;28;47770;-51
2022/05/13 01:55:00;;;;;;;;;1.50;0.00;;;;;18.92;39.71;101616.22;2088073;28;47616;-51
2022/05/13 01:56:01;;;;;;;;;0.00;0.00;;;;;18.89;39.51;101617.22;2088825;28;47584;-52
2022/05/13 01:57:02;;;;;;;;;2.00;0.67;;;;;18.87;39.64;101613.72;2088580;28;48095;-50
2022/05/13 01:58:04;;;;;;;;;1.25;1.25;;;;;18.87;39.67;101619.09;2087743;28;47603;-50
2022/05/13 01:59:04;;;;;;;;;0.00;0.00;;;;;18.87;39.63;101615.53;2088459;28;47885;-52
2022/05/13 02:00:06;;;;;;;;;0.33;0.33;;;;;18.84;39.61;101619.25;2087797;28;47629;-54
2022/05/13 02:01:07;;;;;;;;;1.75;1.00;;;;;18.81;39.72;101620.25;2087193;28;47473;-48
2022/05/13 02:02:08;;;;;;;;;0.00;0.00;;;;;18.80;39.80;101618.50;2083610;28;47520;-51
2022/05/13 02:04:28;;;;;;;;;1.50;1.25;;;;;18.80;40.08;101617.59;2079636;28;47653;-50
2022/05/13 02:05:29;;;;;;;;;0.33;0.33;;;;;18.81;40.10;101617.56;2084712;28;47966;-49
2022/05/13 02:06:30;;;;;;;;;0.00;0.00;;;;;18.83;40.08;101620.19;2087974;28;47611;-49
2022/05/13 02:07:31;;;;;;;;;0.67;0.67;;;;;18.85;39.99;101622.81;2088859;28;47744;-50
2022/05/13 02:08:32;;;;;;;;;1.00;1.00;;;;;18.87;40.06;101618.22;2087696;28;47818;-53
2022/05/13 02:09:33;;;;;;;;;1.00;1.00;;;;;18.88;40.20;101618.16;2087801;28;47511;-51
2022/05/13 02:10:34;;;;;;;;;0.00;0.00;;;;;18.88;40.18;101615.47;2088095;28;47354;-49
2022/05/13 02:11:36;;;;;;;;;0.75;0.75;;;;;18.89;40.07;101609.16;2085981;28;47654;-53
2022/05/13 02:12:37;;;;;;;;;0.00;0.00;;;;;18.91;40.22;101615.34;2088066;28;47594;-51
2022/05/13 02:13:39;;;;;;;;;1.25;0.75;;;;;18.92;40.18;101606.31;2086604;28;47217;-51
2022/05/13 02:14:39;;;;;;;;;0.00;0.00;;;;;18.93;40.39;101617.97;2088098;28;47278;-52
2022/05/13 02:15:40;;;;;;;;;0.67;0.67;;;;;18.94;40.40;101619.75;2087647;28;47495;-48
2022/05/13 02:16:41;;;;;;;;;0.75;0.75;;;;;18.92;40.14;101614.41;2087918;28;47133;-53
2022/05/13 02:17:41;;;;;;;;;0.00;0.00;;;;;18.92;40.11;101619.78;2087902;28;47469;-49
2022/05/13 02:18:42;;;;;;;;;0.67;0.67;;;;;18.89;39.99;101617.22;2087888;28;46199;-52
2022/05/13 02:19:42;;;;;;;;;2.00;2.00;;;;;18.86;39.94;101614.66;2087685;28;47610;-48
2022/05/13 02:20:42;;;;;;;;;2.00;0.00;;;;;18.83;40.15;101624.69;2088011;28;47690;-52
2022/05/13 02:21:43;;;;;;;;;0.33;0.33;;;;;18.79;40.39;101623.91;2088056;28;47875;-53
2022/05/13 02:22:44;;;;;;;;;1.00;1.00;;;;;18.75;40.49;101615.13;2088041;28;47486;-52
2022/05/13 02:23:45;;;;;;;;;0.33;0.33;;;;;18.74;40.44;101615.19;2094778;28;47945;-50
2022/05/13 02:24:45;;;;;;;;;1.00;1.00;;;;;18.73;40.89;101624.19;2095268;28;47925;-53
2022/05/13 02:25:46;;;;;;;;;2.00;2.00;;;;;18.72;40.51;101623.31;2087056;28;47718;-50
2022/05/13 02:26:46;;;;;;;;;1.50;0.75;;;;;18.70;40.55;101624.31;2087089;28;47558;-53
2022/05/13 02:27:47;;;;;;;;;0.67;0.67;;;;;18.70;40.77;101616.25;2087866;28;47353;-53
2022/05/13 02:28:47;;;;;;;;;1.00;1.00;;;;;18.69;40.70;101628.81;2087650;28;46720;-51
2022/05/13 02:29:48;;;;;;;;;3.00;3.00;;;;;18.70;40.82;101618.94;2086076;28;47859;-53
2022/05/13 02:30:48;;;;;;;;;1.00;1.00;;;;;18.69;40.87;101625.25;2086641;28;47774;-51
2022/05/13 02:31:48;;;;;;;;;1.00;1.00;;;;;18.70;40.88;101618.94;2087684;28;48356;-50
2022/05/13 02:32:49;;;;;;;;;3.75;2.50;;;;;18.70;40.91;101618.94;2087782;28;47667;-54
2022/05/13 02:33:49;;;;;;;;;0.67;0.00;;;;;18.70;40.98;101613.56;2087814;28;47554;-48
2022/05/13 02:34:50;;;;;;;;;0.75;0.75;;;;;18.71;40.97;101620.69;2087729;28;47742;-51
2022/05/13 02:35:52;;;;;;;;;2.25;2.00;;;;;18.70;40.87;101617.13;2087924;28;47676;-49
2022/05/13 02:36:53;;;;;;;;;3.60;3.40;;;;;18.70;40.76;101618.94;2087660;28;47971;-51
2022/05/13 02:37:53;;;;;;;;;4.00;2.00;;;;;18.69;40.90;101618.06;2087659;28;47728;-51
2022/05/13 02:38:54;;;;;;;;;2.67;2.67;;;;;18.68;41.14;101613.63;2087571;28;47739;-53
2022/05/13 02:39:54;;;;;;;;;2.67;2.67;;;;;18.68;41.22;101616.31;2088077;28;47263;-54
2022/05/13 02:41:13;;;;;;;;;9.50;9.50;;;;;18.67;40.70;101614.53;2087530;28;47661;-51
2022/05/13 02:42:14;;;;;;;;;8.00;7.60;;;;;18.65;40.79;101620.94;2087947;28;47888;-54
2022/05/13 02:43:15;;;;;;;;;7.40;7.00;;;;;18.63;40.65;101623.66;2087095;28;47740;-52
2022/05/13 02:44:15;;;;;;;;;9.25;9.25;;;;;18.60;41.00;101621.09;2084498;28;48054;-52
2022/05/13 02:45:16;;;;;;;;;8.00;8.00;;;;;18.59;41.07;101618.47;2086537;28;47518;-54
2022/05/13 02:46:22;;;;;;;;;7.50;6.50;;;;;18.58;41.28;101619.41;2086362;28;47751;-52
2022/05/13 02:47:22;;;;;;;;;10.20;9.80;;;;;18.59;41.35;101629.22;2087414;28;47839;-51
2022/05/13 02:48:23;;;;;;;;;12.25;11.00;;;;;18.57;41.07;101623.03;2087724;28;47227;-52
2022/05/13 02:49:23;;;;;;;;;15.25;14.25;;;;;18.57;41.39;101623.91;2083640;28;47633;-51
2022/05/13 02:50:25;;;;;;;;;16.50;15.25;;;;;18.54;41.22;101619.50;2080060;28;47635;-48
2022/05/13 02:51:26;;;;;;;;;16.40;16.40;;;;;18.54;41.32;101618.63;2087678;28;48101;-51
2022/05/13 02:52:26;;;;;;;;;18.25;18.25;;;;;18.53;41.60;101624.94;2088621;28;47635;-47
2022/05/13 02:53:27;;;;;;;;;15.50;15.50;;;;;18.53;41.41;101624.94;2083825;28;47849;-50
2022/05/13 02:54:27;;;;;;;;;15.75;15.75;;;;;18.52;41.51;101624.06;2088105;28;47267;-53
2022/05/13 02:55:28;;;;;;;;;17.25;15.25;;;;;18.52;41.25;101620.50;2088568;28;47705;-52
2022/05/13 02:56:28;;;;;;;;;14.00;14.00;;;;;18.51;41.36;101621.47;2094718;28;47962;-52
2022/05/13 02:57:29;;;;;;;;;15.50;15.50;;;;;18.52;41.38;101621.38;2093247;28;47470;-51
2022/05/13 02:58:29;;;;;;;;;16.00;16.00;;;;;18.52;41.38;101618.69;2086467;28;47103;-50
2022/05/13 02:59:29;;;;;;;;;13.75;13.50;;;;;18.51;41.28;101616.94;2088542;28;48109;-53
2022/05/13 03:00:31;;;;;;;;;12.25;10.75;;;;;18.52;41.50;101623.19;2088822;28;47474;-50
2022/05/13 03:01:32;;;;;;;;;13.40;12.20;;;;;18.50;41.54;101617.88;2087329;28;47644;-51
2022/05/13 03:02:33;;;;;;;;;16.00;16.00;;;;;18.49;41.29;101618.84;2088538;28;47183;-49
2022/05/13 03:03:37;;;;;;;;;8.00;6.80;;;;;18.47;41.34;101620.72;2088544;28;48314;-54
2022/05/13 03:04:38;;;;;;;;;7.40;7.00;;;;;18.44;41.37;101617.28;2087652;28;47958;-50
2022/05/13 03:05:39;;;;;;;;;13.00;9.50;;;;;18.42;41.45;101611.97;2088379;28;47771;-50
2022/05/13 03:06:40;;;;;;;;;9.00;9.00;;;;;18.39;41.72;101620.13;2088398;28;47770;-54
2022/05/13 03:07:40;;;;;;;;;11.00;9.00;;;;;18.39;41.51;101616.56;2087626;28;47276;-51
2022/05/13 03:08:41;;;;;;;;;7.00;7.00;;;;;18.38;41.58;101613.00;2088513;28;47677;-54
2022/05/13 03:09:42;;;;;;;;;8.80;6.40;;;;;18.38;41.57;101614.81;2087378;28;47685;-48
2022/05/13 03:10:42;;;;;;;;;8.25;8.25;;;;;18.36;41.69;101614.88;2088136;28;47710;-50
2022/05/13 03:11:43;;;;;;;;;12.00;9.25;;;;;18.38;41.81;101614.81;2088195;28;47892;-50
2022/05/13 03:12:44;;;;;;;;;6.00;5.80;;;;;18.38;41.78;101618.38;2087393;28;47842;-51
2022/05/13 03:13:44;;;;;;;;;7.75;7.75;;;;;18.40;41.94;101621.00;2088415;28;47503;-51
2022/05/13 03:14:45;;;;;;;;;7.75;7.75;;;;;18.39;42.03;101614.75;2088222;28;48235;-52
2022/05/13 03:15:46;;;;;;;;;9.00;9.00;;;;;18.39;41.82;101619.25;2085267;28;47414;-50
2022/05/13 03:16:46;;;;;;;;;6.40;6.00;;;;;18.40;42.00;101618.31;2091937;28;47542;-52
2022/05/13 03:17:47;;;;;;;;;7.75;6.25;;;;;18.40;41.87;101623.69;2087380;28;47690;-49
2022/05/13 03:18:49;;;;;;;;;8.25;8.25;;;;;18.39;42.02;101617.44;2092380;28;46458;-49
2022/05/13 03:19:50;;;;;;;;;8.00;7.00;;;;;18.40;41.76;101619.19;2090352;28;46451;-50
2022/05/13 03:20:50;;;;;;;;;22.00;20.00;;;;;18.40;41.98;101619.19;2088708;28;47382;-50
2022/05/13 03:21:50;;;;;;;;;24.25;23.25;;;;;18.40;42.24;101618.31;2091539;28;47517;-53
2022/05/13 03:22:52;;;;;;;;;70.25;55.00;;;;;18.40;42.29;101613.81;2088665;28;47310;-51
2022/05/13 03:23:52;;;;;;;;;33.60;30.00;;;;;18.40;41.95;101611.13;2088536;28;47721;-51
2022/05/13 03:24:53;;;;;;;;;12.50;9.75;;;;;18.41;42.09;101617.38;2089081;28;47225;-49
2022/05/13 03:25:53;;;;;;;;;6.00;6.00;;;;;18.40;41.66;101610.25;2087260;28;47582;-51
2022/05/13 03:26:53;;;;;;;;;6.00;6.00;;;;;18.38;42.06;101607.63;2084752;28;47816;-51
2022/05/13 03:27:54;;;;;;;;;7.00;5.50;;;;;18.39;42.04;101616.56;2086843;28;47242;-52
2022/05/13 03:28:55;;;;;;;;;3.50;3.50;;;;;18.37;42.00;101605.88;2088397;28;47660;-50
2022/05/13 03:29:55;;;;;;;;;3.25;3.25;;;;;18.36;42.12;101614.00;2088994;28;47423;-50
2022/05/13 03:30:56;;;;;;;;;2.67;2.33;;;;;18.34;41.81;101606.00;2087558;28;47830;-51
2022/05/13 03:31:56;;;;;;;;;4.00;4.00;;;;;18.33;42.05;101611.44;2088820;28;47827;-53
2022/05/13 03:32:57;;;;;;;;;4.00;3.00;;;;;18.31;42.16;101607.97;2088895;28;47810;-52
2022/05/13 03:33:58;;;;;;;;;3.33;3.33;;;;;18.30;42.16;101608.91;2087770;28;46446;-50
2022/05/13 03:34:59;;;;;;;;;4.50;4.25;;;;;18.28;42.29;101608.94;2088679;28;47668;-49
2022/05/13 03:35:59;;;;;;;;;3.00;3.00;;;;;18.26;42.19;101605.44;2088119;28;47790;-51
2022/05/13 03:37:00;;;;;;;;;3.00;2.33;;;;;18.25;42.18;101614.44;2087994;28;47246;-50
2022/05/13 03:38:00;;;;;;;;;1.75;1.75;;;;;18.23;42.45;101611.81;2087809;28;47656;-50
2022/05/13 03:39:01;;;;;;;;;4.50;2.00;;;;;18.22;42.37;101610.06;2087511;28;48119;-50
2022/05/13 03:40:01;;;;;;;;;2.00;2.00;;;;;18.22;42.45;101611.88;2088614;28;47665;-51
2022/05/13 03:41:01;;;;;;;;;3.00;2.33;;;;;18.19;42.58;101618.25;2103436;27;47559;-50
2022/05/13 03:42:03;;;;;;;;;1.33;1.33;;;;;18.17;42.77;101617.44;2104242;27;47602;-54
2022/05/13 03:43:04;;;;;;;;;2.75;2.25;;;;;18.16;42.76;101617.47;2089367;28;47890;-51
2022/05/13 03:44:05;;;;;;;;;3.75;3.75;;;;;18.15;42.77;101621.09;2087884;28;47318;-51
2022/05/13 03:45:07;;;;;;;;;3.00;2.33;;;;;18.14;42.72;101614.84;2089152;28;47855;-53
2022/05/13 03:46:08;;;;;;;;;5.75;3.50;;;;;18.13;43.06;101615.78;2090325;28;48176;-54
2022/05/13 03:47:08;;;;;;;;;1.00;1.00;;;;;18.14;43.23;101617.53;2087005;28;47268;-51
2022/05/13 03:48:09;;;;;;;;;1.00;1.00;;;;;18.15;43.14;101623.78;2088949;28;47948;-50
2022/05/13 03:49:10;;;;;;;;;4.00;2.67;;;;;18.15;43.03;101624.66;2089143;28;47759;-47
2022/05/13 03:50:12;;;;;;;;;1.25;1.25;;;;;18.14;43.12;101622.91;2088962;28;47955;-52
2022/05/13 03:51:13;;;;;;;;;2.80;2.80;;;;;18.13;43.40;101626.53;2088759;28;47864;-53
2022/05/13 03:52:14;;;;;;;;;2.80;2.20;;;;;18.13;42.95;101618.47;2088673;28;47971;-50
2022/05/13 03:53:15;;;;;;;;;3.25;2.25;;;;;18.10;43.15;101615.91;2088675;28;48171;-52
2022/05/13 03:54:15;;;;;;;;;2.00;2.00;;;;;18.09;43.02;101615.97;2088739;28;47648;-51
2022/05/13 03:55:15;;;;;;;;;0.67;0.67;;;;;18.09;43.23;101621.34;2088845;28;47551;-55
2022/05/13 03:56:16;;;;;;;;;5.75;3.75;;;;;18.07;43.54;101626.78;2088847;28;47672;-52
2022/05/13 03:57:16;;;;;;;;;2.00;1.67;;;;;18.08;43.40;101627.66;2088699;28;48018;-54
2022/05/13 03:58:17;;;;;;;;;3.33;2.33;;;;;18.06;43.55;101619.66;2088988;28;47392;-52
2022/05/13 03:59:17;;;;;;;;;2.00;2.00;;;;;18.06;43.41;101629.53;2089010;28;47558;-53
2022/05/13 04:00:18;;;;;;;;;2.67;2.00;;;;;18.06;43.52;101629.53;2087407;28;47504;-53
2022/05/13 04:01:18;;;;;;;;;2.33;2.33;;;;;18.05;43.29;101628.66;2087745;28;47827;-50
2022/05/13 04:02:19;;;;;;;;;3.00;3.00;;;;;18.03;43.40;101621.56;2088655;28;47974;-52
2022/05/13 04:03:20;;;;;;;;;3.00;3.00;;;;;18.04;43.60;101631.38;2088793;28;47182;-51
2022/05/13 04:04:22;;;;;;;;;2.00;2.00;;;;;18.03;43.53;101625.13;2087331;28;48109;-54
2022/05/13 04:09:19;;;;;;;;;2.50;2.00;;;;;17.96;43.85;101628.13;2087849;28;47473;-50
2022/05/13 04:10:19;;;;;;;;;1.67;1.67;;;;;17.94;43.66;101630.88;2087989;28;47259;-52
2022/05/13 04:11:20;;;;;;;;;5.00;2.67;;;;;17.92;43.70;101633.63;2087549;28;48156;-52
2022/05/13 04:16:24;;;;;;;;;2.75;2.75;;;;;17.88;43.92;101623.91;2088482;28;47854;-53
2022/05/13 04:17:24;;;;;;;;;1.67;0.67;;;;;17.85;44.41;101629.38;2070846;28;47604;-54
2022/05/13 04:18:25;;;;;;;;;1.67;1.33;;;;;17.84;44.14;101627.63;2071298;28;47380;-54
2022/05/13 04:19:26;;;;;;;;;2.00;2.00;;;;;17.85;44.64;101633.88;2087920;28;47615;-52
2022/05/13 04:20:27;;;;;;;;;2.75;2.75;;;;;17.84;44.45;101627.63;2088529;28;47817;-53
2022/05/13 04:21:30;;;;;;;;;3.33;3.33;;;;;17.86;44.49;101627.56;2089060;28;47408;-50
2022/05/13 04:22:31;;;;;;;;;1.50;1.50;;;;;17.85;44.60;101621.34;2088904;28;47605;-50
2022/05/13 04:23:37;;;;;;;;;2.50;2.50;;;;;17.86;44.68;101631.13;2087241;28;47648;-52
2022/05/13 04:24:38;;;;;;;;;1.00;1.00;;;;;17.87;44.80;101626.66;2088464;28;48154;-54
2022/05/13 04:25:38;;;;;;;;;2.00;2.00;;;;;17.86;44.66;101630.25;2089040;28;46353;-49
2022/05/13 04:26:39;;;;;;;;;2.33;2.33;;;;;17.86;44.88;101638.31;2088370;28;47580;-51
2022/05/13 04:27:41;;;;;;;;;3.00;2.00;;;;;17.85;44.76;101642.81;2088780;28;47105;-53
2022/05/13 04:28:44;;;;;;;;;2.00;2.00;;;;;17.85;44.92;101634.75;2088435;28;47699;-54
2022/05/13 04:29:44;;;;;;;;;2.50;2.50;;;;;17.86;44.79;101630.25;2088565;28;48391;-53
2022/05/13 04:30:45;;;;;;;;;2.00;2.00;;;;;17.86;45.10;101635.63;2088700;28;47447;-51
2022/05/13 04:31:45;;;;;;;;;3.67;3.67;;;;;17.86;45.05;101638.31;2085926;28;47578;-53
2022/05/13 04:32:46;;;;;;;;;3.00;3.00;;;;;17.85;44.85;101636.56;2087480;28;47635;-52
2022/05/13 04:33:48;;;;;;;;;5.33;4.00;;;;;17.84;45.14;101633.00;2088678;28;47609;-50
2022/05/13 04:34:48;;;;;;;;;1.75;1.75;;;;;17.84;44.90;101637.50;2088359;28;48176;-54
2022/05/13 04:35:48;;;;;;;;;2.33;2.33;;;;;17.84;45.23;101635.69;2083464;28;47390;-54
2022/05/13 04:36:49;;;;;;;;;3.00;2.00;;;;;17.84;45.17;101635.69;2088532;28;46662;-53
2022/05/13 04:37:49;;;;;;;;;2.67;1.67;;;;;17.84;45.47;101646.44;2086472;28;48103;-50
2022/05/13 04:38:51;;;;;;;;;2.00;2.00;;;;;17.85;45.30;101647.31;2088687;28;47453;-53
2022/05/13 04:39:53;;;;;;;;;1.75;1.75;;;;;17.84;45.29;101649.13;2088523;28;47433;-52
2022/05/13 04:40:54;;;;;;;;;5.75;2.75;;;;;17.83;45.22;101649.19;2087431;28;47555;-52
2022/05/13 04:43:18;;;;;;;;;1.75;1.75;;;;;17.82;45.48;101651.00;2084458;28;48272;-51
2022/05/13 04:44:19;;;;;;;;;5.00;1.67;;;;;17.83;45.33;101649.19;2087144;28;47734;-53
2022/05/13 04:45:25;;;;;;;;;3.00;3.00;;;;;17.83;45.73;101644.69;2092768;28;47632;-53
2022/05/13 04:46:26;;;;;;;;;3.75;3.75;;;;;17.84;45.61;101646.44;2087219;28;47751;-51
2022/05/13 04:48:49;;;;;;;;;2.25;2.25;;;;;17.84;45.38;101642.88;2087611;28;47773;-53
2022/05/13 04:49:49;;;;;;;;;1.50;1.25;;;;;17.84;45.48;101642.88;2082197;28;48015;-51
2022/05/13 04:50:57;;;;;;;;;2.00;2.00;;;;;17.83;45.83;101642.00;2087396;28;47510;-54
2022/05/13 04:51:58;;;;;;;;;2.25;2.25;;;;;17.84;45.76;101648.25;2087212;28;47709;-54
2022/05/13 04:52:58;;;;;;;;;3.67;3.67;;;;;17.84;45.73;101642.88;2087124;28;46758;-51
2022/05/13 04:53:59;;;;;;;;;3.00;2.00;;;;;17.84;45.60;101650.94;2080614;28;47625;-52
2022/05/13 04:54:59;;;;;;;;;4.67;3.00;;;;;17.82;45.91;101644.75;2086710;28;46551;-55
2022/05/13 04:56:03;;;;;;;;;3.00;3.00;;;;;17.83;45.69;101644.69;2087184;28;47311;-54
2022/05/13 04:57:03;;;;;;;;;4.20;3.40;;;;;17.84;45.62;101650.94;2081295;28;48071;-53
2022/05/13 04:58:04;;;;;;;;;3.33;3.00;;;;;17.83;45.58;101643.81;2086177;28;47384;-52
2022/05/13 04:59:04;;;;;;;;;1.67;1.67;;;;;17.83;45.46;101643.81;2083598;28;47564;-54
2022/05/13 05:00:07;;;;;;;;;3.67;2.00;;;;;17.83;45.81;101652.75;2086498;28;46469;-53